createdAt,value
2022-09-21T00:02:03.091Z,4.74
2022-09-21T00:07:05.530Z,4.41
2022-09-21T00:12:07.759Z,4.54
2022-09-21T00:17:10.007Z,4.64
2022-09-21T00:22:12.088Z,4.44
2022-09-21T00:27:14.136Z,4.46
2022-09-21T00:32:17.256Z,4.44
2022-09-21T00:37:20.626Z,4.47
2022-09-21T00:42:29.438Z,4.33
2022-09-21T00:47:37.371Z,4.42
2022-09-21T00:52:45.258Z,4.21
2022-09-21T00:57:52.045Z,3.86
2022-09-21T01:03:01.503Z,4.11
2022-09-21T01:08:08.201Z,4.10
2022-09-21T01:13:39.208Z,4.19
2022-09-21T01:18:52.004Z,4.24
2022-09-21T01:24:12.533Z,4.11
2022-09-21T01:29:35.325Z,4.14
2022-09-21T01:35:11.139Z,4.24
2022-09-21T01:40:32.014Z,4.25
2022-09-21T01:45:41.309Z,4.29
2022-09-21T01:50:52.012Z,3.91
2022-09-21T01:55:58.420Z,4.24
2022-09-21T02:01:01.415Z,4.11
2022-09-21T02:06:06.252Z,3.85
2022-09-21T02:11:12.950Z,4.16
2022-09-21T02:17:02.984Z,4.11
2022-09-21T02:22:16.092Z,4.06
2022-09-21T02:27:25.313Z,4.12
2022-09-21T02:32:53.292Z,3.93
2022-09-21T02:38:09.550Z,3.54
2022-09-21T02:43:27.839Z,3.47
2022-09-21T02:48:38.406Z,3.51
2022-09-21T02:53:42.553Z,2.91
2022-09-21T02:58:50.061Z,3.18
2022-09-21T03:03:52.598Z,3.14
2022-09-21T03:08:54.835Z,3.13
2022-09-21T03:13:57.312Z,2.90
2022-09-21T03:18:59.369Z,3.20
2022-09-21T03:24:01.882Z,3.25
2022-09-21T03:29:04.468Z,3.57
2022-09-21T03:34:06.526Z,3.57
2022-09-21T03:39:08.706Z,3.50
2022-09-21T03:44:11.005Z,3.44
2022-09-21T03:49:13.388Z,3.76
2022-09-21T03:54:15.466Z,3.88
2022-09-21T03:59:17.841Z,3.88
2022-09-21T04:04:20.564Z,3.87
2022-09-21T04:09:22.696Z,3.76
2022-09-21T04:14:25.126Z,3.71
2022-09-21T04:19:27.174Z,3.80
2022-09-21T04:24:31.182Z,3.79
2022-09-21T04:29:33.543Z,3.92
2022-09-21T04:34:36.543Z,3.84
2022-09-21T04:39:39.185Z,4.07
2022-09-21T04:44:41.626Z,4.36
2022-09-21T04:49:43.775Z,4.34
2022-09-21T04:54:46.693Z,4.68
2022-09-21T04:59:48.726Z,4.66
2022-09-21T05:04:51.212Z,4.99
2022-09-21T05:10:05.433Z,5.02
2022-09-21T05:15:08.548Z,5.45
2022-09-21T05:20:11.959Z,5.84
2022-09-21T05:25:14.447Z,5.68
2022-09-21T05:30:16.994Z,5.85
2022-09-21T05:35:32.230Z,6.19
2022-09-21T05:40:35.197Z,6.06
2022-09-21T05:46:03.710Z,6.68
2022-09-21T05:51:12.931Z,6.58
2022-09-21T05:56:44.239Z,8.98
2022-09-21T06:01:59.023Z,14.23
2022-09-21T06:07:01.349Z,17.05
2022-09-21T06:12:04.719Z,16.46
2022-09-21T06:17:06.831Z,14.21
2022-09-21T06:22:08.874Z,13.78
2022-09-21T06:27:11.290Z,14.24
2022-09-21T06:32:13.507Z,14.49
2022-09-21T06:37:15.605Z,13.54
2022-09-21T06:42:17.689Z,13.40
2022-09-21T06:47:20.065Z,14.78
2022-09-21T06:52:22.294Z,15.40
2022-09-21T06:57:24.399Z,15.47
2022-09-21T07:02:26.494Z,15.79
2022-09-21T07:07:32.499Z,15.76
2022-09-21T07:12:35.560Z,15.08
2022-09-21T07:17:39.936Z,14.11
2022-09-21T07:22:42.205Z,14.74
2022-09-21T07:27:44.214Z,16.05
2022-09-21T07:32:50.441Z,15.89
2022-09-21T07:37:52.562Z,15.94
2022-09-21T07:42:58.718Z,14.85
2022-09-21T07:48:08.957Z,15.07
2022-09-21T07:53:11.210Z,15.36
2022-09-21T07:58:31.803Z,14.89
2022-09-21T08:03:34.137Z,16.10
2022-09-21T08:08:36.765Z,16.62
2022-09-21T08:13:39.202Z,17.20
2022-09-21T08:18:41.907Z,17.05
2022-09-21T08:23:44.287Z,17.21
2022-09-21T08:28:53.109Z,16.90
2022-09-21T08:33:57.261Z,16.94
2022-09-21T08:38:59.589Z,17.16
2022-09-21T08:44:14.297Z,15.85
2022-09-21T08:49:27.954Z,16.74
2022-09-21T08:55:05.870Z,17.15
2022-09-21T09:00:14.896Z,16.61
2022-09-21T09:05:39.401Z,16.14
2022-09-21T09:11:05.553Z,16.44
2022-09-21T09:16:36.546Z,15.99
2022-09-21T09:21:41.941Z,16.64
2022-09-21T09:26:55.711Z,17.57
2022-09-21T09:32:00.950Z,17.16
2022-09-21T09:37:14.323Z,17.03
2022-09-21T09:42:35.273Z,17.73
2022-09-21T09:48:02.947Z,17.65
2022-09-21T09:53:16.690Z,18.08
2022-09-21T09:58:22.082Z,18.54
2022-09-21T10:03:27.237Z,19.36
2022-09-21T10:08:39.525Z,19.46
2022-09-21T10:13:50.598Z,18.99
2022-09-21T10:18:52.641Z,20.02
2022-09-21T10:23:59.642Z,19.63
2022-09-21T10:29:17.700Z,18.56
2022-09-21T10:34:20.138Z,18.31
2022-09-21T10:39:26.649Z,18.08
2022-09-21T10:44:37.957Z,18.14
2022-09-21T10:49:47.132Z,17.85
2022-09-21T10:54:52.495Z,17.55
2022-09-21T10:59:54.831Z,17.89
2022-09-21T11:05:26.925Z,17.59
2022-09-21T11:10:35.160Z,17.46
2022-09-21T11:15:49.666Z,17.59
2022-09-21T11:20:57.386Z,17.25
2022-09-21T11:26:10.949Z,17.72
2022-09-21T11:31:54.323Z,17.88
2022-09-21T11:37:19.015Z,18.14
2022-09-21T11:42:33.736Z,18.65
2022-09-21T11:48:06.268Z,18.50
2022-09-21T11:53:40.653Z,18.41
2022-09-21T11:59:17.715Z,18.31
2022-09-21T12:04:56.254Z,17.89
2022-09-21T12:10:13.936Z,17.98
2022-09-21T12:15:49.860Z,18.28
2022-09-21T12:21:04.814Z,18.29
2022-09-21T12:26:07.845Z,18.16
2022-09-21T12:31:19.032Z,17.51
2022-09-21T12:36:47.825Z,17.34
2022-09-21T12:42:05.630Z,17.46
2022-09-21T12:47:13.597Z,17.40
2022-09-21T12:52:23.766Z,16.31
2022-09-21T12:58:14.538Z,15.13
2022-09-21T13:03:44.070Z,14.61
2022-09-21T13:08:47.763Z,14.03
2022-09-21T13:14:03.832Z,13.45
2022-09-21T13:19:23.480Z,13.48
2022-09-21T13:24:31.108Z,13.36
2022-09-21T13:29:36.310Z,13.25
2022-09-21T13:34:42.932Z,13.26
2022-09-21T13:39:51.004Z,13.47
2022-09-21T13:44:53.595Z,13.15
2022-09-21T13:50:00.505Z,13.25
2022-09-21T13:55:06.652Z,12.96
2022-09-21T14:00:12.794Z,13.42
2022-09-21T14:05:33.437Z,13.78
2022-09-21T14:10:38.600Z,13.89
2022-09-21T14:15:40.917Z,14.20
2022-09-21T14:21:09.338Z,14.38
2022-09-21T14:26:34.256Z,13.91
2022-09-21T14:31:39.560Z,14.18
2022-09-21T14:36:50.347Z,13.79
2022-09-21T14:41:56.598Z,13.88
2022-09-21T14:47:28.804Z,14.15
2022-09-21T14:52:43.568Z,14.44
2022-09-21T14:58:04.433Z,14.34
2022-09-21T15:03:54.421Z,14.13
2022-09-21T15:09:24.293Z,14.54
2022-09-21T15:14:32.474Z,14.51
2022-09-21T15:19:37.772Z,14.34
2022-09-21T15:24:52.848Z,14.41
2022-09-21T15:29:56.801Z,14.84
2022-09-21T15:35:04.161Z,14.90
2022-09-21T15:40:19.347Z,15.20
2022-09-21T15:45:21.959Z,14.73
2022-09-21T15:50:25.555Z,14.47
2022-09-21T15:55:31.184Z,13.93
2022-09-21T16:00:35.522Z,13.62
2022-09-21T16:05:47.318Z,13.05
2022-09-21T16:10:50.313Z,13.72
2022-09-21T16:16:04.355Z,13.38
2022-09-21T16:21:14.485Z,14.32
2022-09-21T16:26:23.892Z,14.59
2022-09-21T16:31:31.136Z,14.31
2022-09-21T16:36:55.401Z,13.82
2022-09-21T16:42:01.773Z,12.95
2022-09-21T16:47:04.586Z,12.62
2022-09-21T16:52:07.786Z,12.45
2022-09-21T16:57:12.681Z,12.35
2022-09-21T17:02:16.053Z,11.63
2022-09-21T17:07:20.655Z,11.57
2022-09-21T17:12:24.182Z,11.71
2022-09-21T17:17:26.912Z,11.64
2022-09-21T17:22:29.265Z,11.68
2022-09-21T17:27:32.335Z,11.30
2022-09-21T17:32:38.531Z,11.18
2022-09-21T17:37:43.458Z,11.10
2022-09-21T17:42:48.611Z,10.94
2022-09-21T17:47:51.259Z,10.82
2022-09-21T17:53:13.987Z,10.80
2022-09-21T17:58:44.988Z,10.51
2022-09-21T18:03:47.955Z,10.50
2022-09-21T18:08:51.039Z,10.46
2022-09-21T18:14:22.234Z,10.69
2022-09-21T18:19:49.641Z,11.15
2022-09-21T18:24:54.561Z,10.66
2022-09-21T18:29:57.214Z,10.12
2022-09-21T18:35:28.738Z,9.72
2022-09-21T18:40:37.168Z,9.22
2022-09-21T18:45:50.475Z,9.48
2022-09-21T18:51:11.228Z,10.37
2022-09-21T18:56:14.484Z,9.62
2022-09-21T19:01:19.353Z,9.18
2022-09-21T19:06:46.691Z,8.73
2022-09-21T19:12:07.707Z,9.04
2022-09-21T19:17:39.077Z,9.38
2022-09-21T19:22:49.664Z,8.89
2022-09-21T19:28:00.839Z,8.16
2022-09-21T19:33:45.660Z,8.21
2022-09-21T19:38:42.017Z,7.19
2022-09-21T19:43:59.292Z,8.47
2022-09-21T19:49:13.799Z,8.51
2022-09-21T19:54:37.700Z,7.86
2022-09-21T19:59:43.120Z,7.46
2022-09-21T20:05:07.132Z,7.02
2022-09-21T20:10:25.315Z,6.53
2022-09-21T20:15:38.884Z,6.70
2022-09-21T20:20:42.324Z,6.63
2022-09-21T20:25:53.225Z,6.62
2022-09-21T20:30:55.399Z,7.13
2022-09-21T20:35:58.047Z,7.79
2022-09-21T20:41:00.109Z,7.14
2022-09-21T20:46:03.147Z,6.68
2022-09-21T20:51:06.379Z,6.69
2022-09-21T20:56:08.815Z,6.42
2022-09-21T21:01:11.162Z,6.34
2022-09-21T21:06:16.948Z,7.17
2022-09-21T21:11:20.616Z,6.68
2022-09-21T21:16:23.405Z,6.49
2022-09-21T21:21:26.059Z,5.98
2022-09-21T21:26:50.356Z,6.60
2022-09-21T21:31:50.936Z,6.61
2022-09-21T21:36:53.889Z,6.11
2022-09-21T21:41:56.217Z,5.90
2022-09-21T21:47:10.248Z,5.45
2022-09-21T21:52:21.496Z,5.47
2022-09-21T21:57:23.733Z,6.61
2022-09-21T22:02:25.925Z,7.65
2022-09-21T22:07:28.038Z,8.49
2022-09-21T22:12:31.713Z,7.55
2022-09-21T22:17:33.980Z,6.84
2022-09-21T22:22:36.218Z,6.50
2022-09-21T22:27:38.442Z,5.72
2022-09-21T22:32:40.480Z,5.69
2022-09-21T22:37:42.685Z,5.85
2022-09-21T22:42:47.472Z,5.59
2022-09-21T22:47:52.665Z,5.68
2022-09-21T22:52:54.880Z,5.56
2022-09-21T22:57:56.971Z,5.14
2022-09-21T23:02:59.058Z,5.06
2022-09-21T23:08:01.473Z,5.27
2022-09-21T23:13:03.734Z,5.08
2022-09-21T23:18:05.800Z,5.17
2022-09-21T23:23:07.841Z,5.24
2022-09-21T23:28:10.065Z,5.30
2022-09-21T23:33:12.958Z,5.32
2022-09-21T23:38:15.186Z,5.39
2022-09-21T23:43:17.373Z,5.45
2022-09-21T23:48:19.574Z,5.23
2022-09-21T23:53:22.520Z,5.15
2022-09-21T23:58:26.368Z,4.96
